sensor_id;sensor_type;location;lat;lon;timestamp;pressure;altitude;pressure_sealevel;temperature;humidity
34931;BME280;21134;49.646;8.560;2023-04-25T00:01:30;99841.03;;;8.71;100.00
34931;BME280;21134;49.646;8.560;2023-04-25T00:03:57;99843.56;;;8.73;100.00
34931;BME280;21134;49.646;8.560;2023-04-25T00:06:23;99838.47;;;8.71;100.00
34931;BME280;21134;49.646;8.560;2023-04-25T00:08:53;99834.19;;;8.73;100.00
34931;BME280;21134;49.646;8.560;2023-04-25T00:11:20;99841.00;;;8.76;100.00
34931;BME280;21134;49.646;8.560;2023-04-25T00:13:47;99841.00;;;8.76;100.00
34931;BME280;21134;49.646;8.560;2023-04-25T00:16:14;99840.16;;;8.72;100.00
34931;BME280;21134;49.646;8.560;2023-04-25T00:18:41;99845.22;;;8.77;100.00
34931;BME280;21134;49.646;8.560;2023-04-25T00:21:09;99842.66;;;8.80;100.00
34931;BME280;21134;49.646;8.560;2023-04-25T00:23:35;99844.38;;;8.84;100.00
34931;BME280;21134;49.646;8.560;2023-04-25T00:26:03;99851.16;;;8.88;100.00
34931;BME280;21134;49.646;8.560;2023-04-25T00:28:30;99846.91;;;8.85;100.00
34931;BME280;21134;49.646;8.560;2023-04-25T00:30:56;99845.19;;;8.83;100.00
34931;BME280;21134;49.646;8.560;2023-04-25T00:33:23;99854.59;;;8.81;100.00
34931;BME280;21134;49.646;8.560;2023-04-25T00:35:49;99846.94;;;8.81;100.00
34931;BME280;21134;49.646;8.560;2023-04-25T00:38:19;99847.75;;;8.83;100.00
34931;BME280;21134;49.646;8.560;2023-04-25T00:40:45;99847.78;;;8.81;100.00
34931;BME280;21134;49.646;8.560;2023-04-25T00:43:13;99843.50;;;8.80;100.00
34931;BME280;21134;49.646;8.560;2023-04-25T00:45:40;99845.22;;;8.81;100.00
34931;BME280;21134;49.646;8.560;2023-04-25T00:48:07;99842.66;;;8.80;100.00
34931;BME280;21134;49.646;8.560;2023-04-25T00:50:34;99840.13;;;8.78;100.00
34931;BME280;21134;49.646;8.560;2023-04-25T00:53:02;99842.66;;;8.81;100.00
34931;BME280;21134;49.646;8.560;2023-04-25T00:55:29;99840.97;;;8.77;100.00
34931;BME280;21134;49.646;8.560;2023-04-25T00:57:57;99840.13;;;8.81;100.00
34931;BME280;21134;49.646;8.560;2023-04-25T01:00:25;99840.94;;;8.80;100.00
34931;BME280;21134;49.646;8.560;2023-04-25T01:02:52;99839.28;;;8.81;100.00
34931;BME280;21134;49.646;8.560;2023-04-25T01:05:19;99838.41;;;8.77;100.00
34931;BME280;21134;49.646;8.560;2023-04-25T01:07:45;99829.09;;;8.73;100.00
34931;BME280;21134;49.646;8.560;2023-04-25T01:10:12;99835.03;;;8.74;100.00
34931;BME280;21134;49.646;8.560;2023-04-25T01:12:39;99834.19;;;8.76;100.00
34931;BME280;21134;49.646;8.560;2023-04-25T01:15:06;99836.75;;;8.78;100.00
34931;BME280;21134;49.646;8.560;2023-04-25T01:17:35;99834.16;;;8.79;100.00
34931;BME280;21134;49.646;8.560;2023-04-25T01:20:03;99831.63;;;8.78;100.00
34931;BME280;21134;49.646;8.560;2023-04-25T01:22:31;99830.81;;;8.73;100.00
34931;BME280;21134;49.646;8.560;2023-04-25T01:24:58;99830.81;;;8.71;100.00
34931;BME280;21134;49.646;8.560;2023-04-25T01:27:25;99826.53;;;8.73;100.00
34931;BME280;21134;49.646;8.560;2023-04-25T01:29:53;99826.53;;;8.76;100.00
34931;BME280;21134;49.646;8.560;2023-04-25T01:32:21;99821.47;;;8.72;100.00
34931;BME280;21134;49.646;8.560;2023-04-25T01:34:48;99830.81;;;8.71;100.00
34931;BME280;21134;49.646;8.560;2023-04-25T01:37:16;99831.69;;;8.69;100.00
34931;BME280;21134;49.646;8.560;2023-04-25T01:39:44;99827.41;;;8.68;100.00
34931;BME280;21134;49.646;8.560;2023-04-25T01:42:13;99833.38;;;8.65;100.00
34931;BME280;21134;49.646;8.560;2023-04-25T01:44:39;99827.44;;;8.66;100.00
34931;BME280;21134;49.646;8.560;2023-04-25T01:47:06;99832.53;;;8.66;100.00
34931;BME280;21134;49.646;8.560;2023-04-25T01:49:32;99836.78;;;8.64;100.00
34931;BME280;21134;49.646;8.560;2023-04-25T01:51:59;99830.84;;;8.65;100.00
34931;BME280;21134;49.646;8.560;2023-04-25T01:54:25;99833.38;;;8.64;100.00
34931;BME280;21134;49.646;8.560;2023-04-25T01:56:57;99836.78;;;8.69;100.00
34931;BME280;21134;49.646;8.560;2023-04-25T01:59:23;99825.75;;;8.65;100.00
34931;BME280;21134;49.646;8.560;2023-04-25T02:01:50;99827.44;;;8.63;100.00
34931;BME280;21134;49.646;8.560;2023-04-25T02:04:17;99825.72;;;8.64;100.00
34931;BME280;21134;49.646;8.560;2023-04-25T02:06:43;99830.00;;;8.63;100.00
34931;BME280;21134;49.646;8.560;2023-04-25T02:09:10;99828.28;;;8.64;100.00
34931;BME280;21134;49.646;8.560;2023-04-25T02:11:36;99824.91;;;8.61;100.00
34931;BME280;21134;49.646;8.560;2023-04-25T02:14:04;99830.03;;;8.58;100.00
34931;BME280;21134;49.646;8.560;2023-04-25T02:16:30;99824.03;;;8.58;100.00
34931;BME280;21134;49.646;8.560;2023-04-25T02:18:57;99819.81;;;8.57;100.00
34931;BME280;21134;49.646;8.560;2023-04-25T02:21:24;99825.75;;;8.57;100.00
34931;BME280;21134;49.646;8.560;2023-04-25T02:23:51;99824.09;;;8.50;100.00
34931;BME280;21134;49.646;8.560;2023-04-25T02:26:18;99822.41;;;8.49;100.00
34931;BME280;21134;49.646;8.560;2023-04-25T02:28:44;99827.50;;;8.52;100.00
34931;BME280;21134;49.646;8.560;2023-04-25T02:31:12;99828.34;;;8.50;100.00
34931;BME280;21134;49.646;8.560;2023-04-25T02:33:39;99821.53;;;8.47;100.00
34931;BME280;21134;49.646;8.560;2023-04-25T02:36:06;99816.47;;;8.46;100.00
34931;BME280;21134;49.646;8.560;2023-04-25T02:38:32;99823.25;;;8.44;100.00
34931;BME280;21134;49.646;8.560;2023-04-25T02:40:59;99819.84;;;8.42;100.00
34931;BME280;21134;49.646;8.560;2023-04-25T02:43:26;99813.06;;;8.41;100.00
34931;BME280;21134;49.646;8.560;2023-04-25T02:45:52;99806.28;;;8.40;100.00
34931;BME280;21134;49.646;8.560;2023-04-25T02:48:20;99814.75;;;8.42;100.00
34931;BME280;21134;49.646;8.560;2023-04-25T02:50:46;99810.50;;;8.42;100.00
34931;BME280;21134;49.646;8.560;2023-04-25T02:53:13;99807.13;;;8.38;100.00
34931;BME280;21134;49.646;8.560;2023-04-25T02:55:40;99802.88;;;8.41;100.00
34931;BME280;21134;49.646;8.560;2023-04-25T02:58:06;99793.53;;;8.40;100.00
34931;BME280;21134;49.646;8.560;2023-04-25T03:00:33;99801.19;;;8.40;100.00
34931;BME280;21134;49.646;8.560;2023-04-25T03:02:59;99811.38;;;8.38;100.00
34931;BME280;21134;49.646;8.560;2023-04-25T03:05:27;99804.56;;;8.38;100.00
34931;BME280;21134;49.646;8.560;2023-04-25T03:07:54;99808.84;;;8.40;100.00
34931;BME280;21134;49.646;8.560;2023-04-25T03:10:20;99809.66;;;8.37;100.00
34931;BME280;21134;49.646;8.560;2023-04-25T03:12:46;99812.19;;;8.35;100.00
34931;BME280;21134;49.646;8.560;2023-04-25T03:15:13;99813.06;;;8.34;100.00
34931;BME280;21134;49.646;8.560;2023-04-25T03:17:41;99811.34;;;8.36;100.00
34931;BME280;21134;49.646;8.560;2023-04-25T03:20:09;99808.81;;;8.38;100.00
34931;BME280;21134;49.646;8.560;2023-04-25T03:22:37;99809.66;;;8.34;100.00
34931;BME280;21134;49.646;8.560;2023-04-25T03:25:05;99806.25;;;8.36;100.00
34931;BME280;21134;49.646;8.560;2023-04-25T03:27:32;99811.34;;;8.35;100.00
34931;BME280;21134;49.646;8.560;2023-04-25T03:29:58;99809.66;;;8.31;100.00
34931;BME280;21134;49.646;8.560;2023-04-25T03:32:25;99813.91;;;8.33;100.00
34931;BME280;21134;49.646;8.560;2023-04-25T03:34:51;99811.34;;;8.36;100.00
34931;BME280;21134;49.646;8.560;2023-04-25T03:37:18;99810.53;;;8.41;100.00
34931;BME280;21134;49.646;8.560;2023-04-25T03:39:46;99810.50;;;8.39;100.00
34931;BME280;21134;49.646;8.560;2023-04-25T03:42:13;99807.94;;;8.37;100.00
34931;BME280;21134;49.646;8.560;2023-04-25T03:44:39;99802.84;;;8.37;100.00
34931;BME280;21134;49.646;8.560;2023-04-25T03:47:06;99803.72;;;8.36;100.00
34931;BME280;21134;49.646;8.560;2023-04-25T03:49:33;99801.16;;;8.35;100.00
34931;BME280;21134;49.646;8.560;2023-04-25T03:52:00;99811.38;;;8.33;100.00
34931;BME280;21134;49.646;8.560;2023-04-25T03:54:27;99811.38;;;8.33;100.00
34931;BME280;21134;49.646;8.560;2023-04-25T03:56:54;99811.38;;;8.33;100.00
34931;BME280;21134;49.646;8.560;2023-04-25T03:59:21;99814.75;;;8.32;100.00
34931;BME280;21134;49.646;8.560;2023-04-25T04:01:47;99817.28;;;8.32;100.00
34931;BME280;21134;49.646;8.560;2023-04-25T04:04:14;99819.84;;;8.32;100.00
34931;BME280;21134;49.646;8.560;2023-04-25T04:06:40;99819.00;;;8.32;100.00
34931;BME280;21134;49.646;8.560;2023-04-25T04:09:07;99828.34;;;8.31;100.00
34931;BME280;21134;49.646;8.560;2023-04-25T04:11:36;99824.09;;;8.36;100.00
34931;BME280;21134;49.646;8.560;2023-04-25T04:14:05;99827.50;;;8.37;100.00
34931;BME280;21134;49.646;8.560;2023-04-25T04:16:31;99824.09;;;8.35;100.00
34931;BME280;21134;49.646;8.560;2023-04-25T04:18:58;99830.06;;;8.38;100.00
34931;BME280;21134;49.646;8.560;2023-04-25T04:21:24;99831.75;;;8.36;100.00
34931;BME280;21134;49.646;8.560;2023-04-25T04:23:52;99835.16;;;8.37;100.00
34931;BME280;21134;49.646;8.560;2023-04-25T04:26:19;99838.56;;;8.41;100.00
34931;BME280;21134;49.646;8.560;2023-04-25T04:28:48;99836.84;;;8.41;100.00
34931;BME280;21134;49.646;8.560;2023-04-25T04:31:17;99835.16;;;8.43;100.00
34931;BME280;21134;49.646;8.560;2023-04-25T04:33:44;99831.75;;;8.44;100.00
34931;BME280;21134;49.646;8.560;2023-04-25T04:36:11;99841.09;;;8.45;100.00
34931;BME280;21134;49.646;8.560;2023-04-25T04:38:38;99838.53;;;8.47;100.00
34931;BME280;21134;49.646;8.560;2023-04-25T04:41:05;99842.78;;;8.48;100.00
34931;BME280;21134;49.646;8.560;2023-04-25T04:43:32;99840.22;;;8.48;100.00
34931;BME280;21134;49.646;8.560;2023-04-25T04:46:00;99846.19;;;8.53;100.00
34931;BME280;21134;49.646;8.560;2023-04-25T04:48:30;99845.31;;;8.55;100.00
34931;BME280;21134;49.646;8.560;2023-04-25T04:50:59;99844.44;;;8.58;100.00
34931;BME280;21134;49.646;8.560;2023-04-25T04:53:26;99844.44;;;8.58;100.00
34931;BME280;21134;49.646;8.560;2023-04-25T04:55:52;99852.94;;;8.60;100.00
34931;BME280;21134;49.646;8.560;2023-04-25T04:58:19;99856.34;;;8.62;100.00
34931;BME280;21134;49.646;8.560;2023-04-25T05:00:45;99854.63;;;8.64;100.00
34931;BME280;21134;49.646;8.560;2023-04-25T05:03:12;99861.44;;;8.62;100.00
34931;BME280;21134;49.646;8.560;2023-04-25T05:05:40;99869.09;;;8.64;100.00
34931;BME280;21134;49.646;8.560;2023-04-25T05:08:07;99867.38;;;8.67;100.00
34931;BME280;21134;49.646;8.560;2023-04-25T05:10:33;99874.19;;;8.68;100.00
34931;BME280;21134;49.646;8.560;2023-04-25T05:13:00;99868.22;;;8.72;100.00
34931;BME280;21134;49.646;8.560;2023-04-25T05:15:27;99869.03;;;8.82;100.00
34931;BME280;21134;49.646;8.560;2023-04-25T05:17:53;99869.84;;;8.89;100.00
34931;BME280;21134;49.646;8.560;2023-04-25T05:20:19;99869.81;;;8.96;100.00
34931;BME280;21134;49.646;8.560;2023-04-25T05:22:47;99872.34;;;9.04;100.00
34931;BME280;21134;49.646;8.560;2023-04-25T05:25:14;99874.88;;;9.05;100.00
34931;BME280;21134;49.646;8.560;2023-04-25T05:27:40;99876.53;;;9.14;100.00
34931;BME280;21134;49.646;8.560;2023-04-25T05:30:07;99882.41;;;9.27;100.00
34931;BME280;21134;49.646;8.560;2023-04-25T05:32:34;99884.91;;;9.38;100.00
34931;BME280;21134;49.646;8.560;2023-04-25T05:35:01;99884.03;;;9.45;100.00
34931;BME280;21134;49.646;8.560;2023-04-25T05:37:28;99886.59;;;9.42;100.00
34931;BME280;21134;49.646;8.560;2023-04-25T05:39:57;99885.66;;;9.53;100.00
34931;BME280;21134;49.646;8.560;2023-04-25T05:42:24;99890.75;;;9.58;100.00
34931;BME280;21134;49.646;8.560;2023-04-25T05:44:50;99889.03;;;9.57;100.00
34931;BME280;21134;49.646;8.560;2023-04-25T05:47:17;99895.06;;;9.48;100.00
34931;BME280;21134;49.646;8.560;2023-04-25T05:49:43;99892.50;;;9.47;99.99
34931;BME280;21134;49.646;8.560;2023-04-25T05:52:10;99894.19;;;9.49;96.90
34931;BME280;21134;49.646;8.560;2023-04-25T05:54:36;99896.00;;;9.35;96.04
34931;BME280;21134;49.646;8.560;2023-04-25T05:57:04;99900.22;;;9.35;95.78
34931;BME280;21134;49.646;8.560;2023-04-25T05:59:30;99903.75;;;9.17;96.58
34931;BME280;21134;49.646;8.560;2023-04-25T06:01:57;99908.91;;;9.01;98.11
34931;BME280;21134;49.646;8.560;2023-04-25T06:04:23;99913.16;;;8.96;98.95
34931;BME280;21134;49.646;8.560;2023-04-25T06:06:49;99908.00;;;9.19;97.37
34931;BME280;21134;49.646;8.560;2023-04-25T06:09:16;99911.41;;;9.09;97.37
34931;BME280;21134;49.646;8.560;2023-04-25T06:11:42;99911.44;;;9.07;95.24
34931;BME280;21134;49.646;8.560;2023-04-25T06:14:10;99919.16;;;9.00;90.85
34931;BME280;21134;49.646;8.560;2023-04-25T06:16:37;99922.59;;;8.80;91.14
34931;BME280;21134;49.646;8.560;2023-04-25T06:19:03;99922.66;;;8.59;91.08
34931;BME280;21134;49.646;8.560;2023-04-25T06:21:29;99921.81;;;8.55;91.96
34931;BME280;21134;49.646;8.560;2023-04-25T06:23:56;99929.47;;;8.52;91.01
34931;BME280;21134;49.646;8.560;2023-04-25T06:26:23;99927.75;;;8.42;89.79
34931;BME280;21134;49.646;8.560;2023-04-25T06:28:49;99928.63;;;8.27;89.52
34931;BME280;21134;49.646;8.560;2023-04-25T06:31:17;99929.50;;;8.40;88.59
34931;BME280;21134;49.646;8.560;2023-04-25T06:33:44;99932.00;;;8.31;88.51
34931;BME280;21134;49.646;8.560;2023-04-25T06:36:10;99930.28;;;8.54;87.80
34931;BME280;21134;49.646;8.560;2023-04-25T06:38:36;99929.47;;;8.52;86.05
34931;BME280;21134;49.646;8.560;2023-04-25T06:41:03;99922.69;;;8.44;85.19
34931;BME280;21134;49.646;8.560;2023-04-25T06:43:30;99923.53;;;8.47;85.18
34931;BME280;21134;49.646;8.560;2023-04-25T06:45:58;99921.78;;;8.60;85.36
34931;BME280;21134;49.646;8.560;2023-04-25T06:48:26;99921.00;;;8.46;86.23
34931;BME280;21134;49.646;8.560;2023-04-25T06:50:52;99928.63;;;8.50;87.44
34931;BME280;21134;49.646;8.560;2023-04-25T06:53:19;99926.06;;;8.59;87.51
34931;BME280;21134;49.646;8.560;2023-04-25T06:55:45;99938.78;;;8.78;86.74
34931;BME280;21134;49.646;8.560;2023-04-25T06:58:12;99936.22;;;8.81;85.60
34931;BME280;21134;49.646;8.560;2023-04-25T07:00:38;99938.69;;;8.93;85.64
34931;BME280;21134;49.646;8.560;2023-04-25T07:03:05;99944.59;;;9.17;84.12
34931;BME280;21134;49.646;8.560;2023-04-25T07:05:32;99942.94;;;9.06;83.42
34931;BME280;21134;49.646;8.560;2023-04-25T07:07:59;99947.22;;;8.91;80.94
34931;BME280;21134;49.646;8.560;2023-04-25T07:10:25;99947.25;;;8.88;79.65
34931;BME280;21134;49.646;8.560;2023-04-25T07:12:52;99942.97;;;8.88;78.15
34931;BME280;21134;49.646;8.560;2023-04-25T07:15:19;99950.63;;;8.83;78.88
34931;BME280;21134;49.646;8.560;2023-04-25T07:17:45;99954.91;;;8.88;78.30
34931;BME280;21134;49.646;8.560;2023-04-25T07:20:12;99953.19;;;8.77;80.07
34931;BME280;21134;49.646;8.560;2023-04-25T07:22:40;99954.00;;;8.95;79.17
34931;BME280;21134;49.646;8.560;2023-04-25T07:25:07;99963.44;;;8.70;80.85
34931;BME280;21134;49.646;8.560;2023-04-25T07:27:33;99952.38;;;8.78;81.58
34931;BME280;21134;49.646;8.560;2023-04-25T07:30:00;99961.63;;;9.10;80.41
34931;BME280;21134;49.646;8.560;2023-04-25T07:32:27;99962.53;;;8.97;80.99
34931;BME280;21134;49.646;8.560;2023-04-25T07:34:53;99969.31;;;9.04;82.27
34931;BME280;21134;49.646;8.560;2023-04-25T07:37:20;99969.22;;;9.28;80.75
34931;BME280;21134;49.646;8.560;2023-04-25T07:39:47;99967.47;;;9.37;81.36
34931;BME280;21134;49.646;8.560;2023-04-25T07:42:14;99971.63;;;9.58;77.64
34931;BME280;21134;49.646;8.560;2023-04-25T07:44:40;99967.34;;;9.61;77.84
34931;BME280;21134;49.646;8.560;2023-04-25T07:47:07;99974.16;;;9.59;78.44
34931;BME280;21134;49.646;8.560;2023-04-25T07:49:34;99966.50;;;9.56;79.06
34931;BME280;21134;49.646;8.560;2023-04-25T07:52:02;99985.97;;;9.83;73.14
34931;BME280;21134;49.646;8.560;2023-04-25T07:54:28;99980.94;;;9.65;74.72
34931;BME280;21134;49.646;8.560;2023-04-25T07:56:56;99990.31;;;9.64;74.77
34931;BME280;21134;49.646;8.560;2023-04-25T07:59:23;99986.06;;;9.62;74.82
34931;BME280;21134;49.646;8.560;2023-04-25T08:01:50;99991.88;;;9.85;73.38
34931;BME280;21134;49.646;8.560;2023-04-25T08:04:16;99989.06;;;10.25;72.18
34931;BME280;21134;49.646;8.560;2023-04-25T08:06:43;99993.34;;;10.20;72.61
34931;BME280;21134;49.646;8.560;2023-04-25T08:09:10;100006.16;;;10.20;72.21
34931;BME280;21134;49.646;8.560;2023-04-25T08:11:37;100014.66;;;10.20;72.01
34931;BME280;21134;49.646;8.560;2023-04-25T08:14:05;100011.25;;;10.28;71.28
34931;BME280;21134;49.646;8.560;2023-04-25T08:16:32;100013.72;;;10.37;69.84
34931;BME280;21134;49.646;8.560;2023-04-25T08:18:59;100021.19;;;10.63;69.50
34931;BME280;21134;49.646;8.560;2023-04-25T08:21:25;100019.41;;;10.69;70.49
34931;BME280;21134;49.646;8.560;2023-04-25T08:23:52;100019.28;;;10.83;70.38
34931;BME280;21134;49.646;8.560;2023-04-25T08:26:18;100015.81;;;10.87;69.70
34931;BME280;21134;49.646;8.560;2023-04-25T08:28:45;100026.03;;;10.90;68.65
34931;BME280;21134;49.646;8.560;2023-04-25T08:31:13;100030.31;;;10.91;69.74
34931;BME280;21134;49.646;8.560;2023-04-25T08:33:40;100035.47;;;10.88;70.08
34931;BME280;21134;49.646;8.560;2023-04-25T08:36:06;100040.56;;;10.87;69.31
34931;BME280;21134;49.646;8.560;2023-04-25T08:38:33;100033.78;;;10.86;71.19
34931;BME280;21134;49.646;8.560;2023-04-25T08:41:00;100031.88;;;11.03;68.81
34931;BME280;21134;49.646;8.560;2023-04-25T08:43:28;100032.81;;;10.96;69.17
34931;BME280;21134;49.646;8.560;2023-04-25T08:45:59;100044.94;;;10.79;69.35
34931;BME280;21134;49.646;8.560;2023-04-25T08:48:28;100045.75;;;10.82;69.57
34931;BME280;21134;49.646;8.560;2023-04-25T08:50:56;100049.88;;;10.94;69.65
34931;BME280;21134;49.646;8.560;2023-04-25T08:53:26;100050.91;;;10.75;69.25
34931;BME280;21134;49.646;8.560;2023-04-25T08:55:54;100048.16;;;10.96;71.65
34931;BME280;21134;49.646;8.560;2023-04-25T08:58:21;100055.25;;;10.69;68.86
34931;BME280;21134;49.646;8.560;2023-04-25T09:00:48;100059.56;;;10.63;68.69
34931;BME280;21134;49.646;8.560;2023-04-25T09:03:15;100074.09;;;10.58;69.42
34931;BME280;21134;49.646;8.560;2023-04-25T09:05:44;100067.16;;;10.70;70.37
34931;BME280;21134;49.646;8.560;2023-04-25T09:08:10;100067.16;;;10.72;68.76
34931;BME280;21134;49.646;8.560;2023-04-25T09:10:37;100068.69;;;10.94;68.31
34931;BME280;21134;49.646;8.560;2023-04-25T09:13:05;100082.03;;;11.23;69.50
34931;BME280;21134;49.646;8.560;2023-04-25T09:15:46;100076.16;;;11.13;68.56
34931;BME280;21134;49.646;8.560;2023-04-25T09:18:13;100073.50;;;11.22;66.69
34931;BME280;21134;49.646;8.560;2023-04-25T09:20:41;100080.16;;;11.38;66.64
34931;BME280;21134;49.646;8.560;2023-04-25T09:23:10;100085.16;;;11.52;64.61
34931;BME280;21134;49.646;8.560;2023-04-25T09:25:37;100092.00;;;11.50;65.34
34931;BME280;21134;49.646;8.560;2023-04-25T09:28:05;100090.41;;;11.38;65.69
34931;BME280;21134;49.646;8.560;2023-04-25T09:30:34;100092.06;;;11.46;65.79
34931;BME280;21134;49.646;8.560;2023-04-25T09:33:04;100088.09;;;11.15;68.10
34931;BME280;21134;49.646;8.560;2023-04-25T09:35:35;100091.41;;;11.25;67.66
34931;BME280;21134;49.646;8.560;2023-04-25T09:38:07;100098.09;;;11.38;65.10
34931;BME280;21134;49.646;8.560;2023-04-25T09:40:39;100098.59;;;11.70;66.94
34931;BME280;21134;49.646;8.560;2023-04-25T09:43:09;100104.38;;;12.50;65.11
34931;BME280;21134;49.646;8.560;2023-04-25T09:45:40;100095.44;;;13.25;62.03
34931;BME280;21134;49.646;8.560;2023-04-25T09:48:11;100105.22;;;13.53;62.02
34931;BME280;21134;49.646;8.560;2023-04-25T09:50:38;100108.56;;;13.09;59.90
34931;BME280;21134;49.646;8.560;2023-04-25T09:53:05;100106.59;;;12.73;62.75
34931;BME280;21134;49.646;8.560;2023-04-25T09:55:32;100107.59;;;12.63;61.45
34931;BME280;21134;49.646;8.560;2023-04-25T09:58:05;100115.50;;;12.49;62.19
34931;BME280;21134;49.646;8.560;2023-04-25T10:00:33;100125.31;;;12.23;62.98
34931;BME280;21134;49.646;8.560;2023-04-25T10:03:01;100121.28;;;12.03;62.19
34931;BME280;21134;49.646;8.560;2023-04-25T10:05:30;100122.91;;;12.09;61.38
34931;BME280;21134;49.646;8.560;2023-04-25T10:07:58;100128.22;;;11.97;62.22
34931;BME280;21134;49.646;8.560;2023-04-25T10:10:26;100127.78;;;12.27;59.56
34931;BME280;21134;49.646;8.560;2023-04-25T10:12:54;100123.03;;;12.60;59.70
34931;BME280;21134;49.646;8.560;2023-04-25T10:15:22;100116.81;;;12.75;59.19
34931;BME280;21134;49.646;8.560;2023-04-25T10:17:49;100125.97;;;12.93;58.29
34931;BME280;21134;49.646;8.560;2023-04-25T10:20:16;100126.03;;;12.88;59.73
34931;BME280;21134;49.646;8.560;2023-04-25T10:22:44;100129.44;;;12.90;59.24
34931;BME280;21134;49.646;8.560;2023-04-25T10:25:13;100130.25;;;12.91;57.34
34931;BME280;21134;49.646;8.560;2023-04-25T10:27:40;100126.31;;;12.70;57.62
34931;BME280;21134;49.646;8.560;2023-04-25T10:30:08;100131.53;;;12.65;60.02
34931;BME280;21134;49.646;8.560;2023-04-25T10:32:39;100130.81;;;12.55;58.90
34931;BME280;21134;49.646;8.560;2023-04-25T10:35:13;100135.03;;;12.61;58.61
34931;BME280;21134;49.646;8.560;2023-04-25T10:37:58;100137.97;;;12.33;58.92
34931;BME280;21134;49.646;8.560;2023-04-25T10:40:25;100138.91;;;12.29;59.07
34931;BME280;21134;49.646;8.560;2023-04-25T10:42:52;100142.34;;;12.27;57.76
34931;BME280;21134;49.646;8.560;2023-04-25T10:45:19;100139.91;;;12.18;59.17
34931;BME280;21134;49.646;8.560;2023-04-25T10:47:48;100152.88;;;12.05;60.65
34931;BME280;21134;49.646;8.560;2023-04-25T10:50:15;100155.78;;;11.75;60.19
34931;BME280;21134;49.646;8.560;2023-04-25T10:52:41;100149.88;;;11.67;60.42
34931;BME280;21134;49.646;8.560;2023-04-25T10:55:08;100155.34;;;11.34;61.24
34931;BME280;21134;49.646;8.560;2023-04-25T10:57:39;100153.59;;;11.38;61.95
34931;BME280;21134;49.646;8.560;2023-04-25T11:00:09;100159.50;;;11.45;62.46
34931;BME280;21134;49.646;8.560;2023-04-25T11:02:37;100160.25;;;11.56;62.84
34931;BME280;21134;49.646;8.560;2023-04-25T11:05:07;100160.16;;;11.63;62.23
34931;BME280;21134;49.646;8.560;2023-04-25T11:07:37;100160.06;;;11.73;61.78
34931;BME280;21134;49.646;8.560;2023-04-25T11:10:05;100167.72;;;11.76;60.97
34931;BME280;21134;49.646;8.560;2023-04-25T11:12:32;100172.94;;;11.68;60.78
34931;BME280;21134;49.646;8.560;2023-04-25T11:15:00;100164.56;;;11.52;61.87
34931;BME280;21134;49.646;8.560;2023-04-25T11:17:27;100167.88;;;11.60;62.18
34931;BME280;21134;49.646;8.560;2023-04-25T11:19:54;100166.09;;;11.69;61.24
34931;BME280;21134;49.646;8.560;2023-04-25T11:22:23;100170.97;;;11.95;61.71
34931;BME280;21134;49.646;8.560;2023-04-25T11:24:49;100165.03;;;12.56;60.16
34931;BME280;21134;49.646;8.560;2023-04-25T11:27:16;100163.00;;;12.78;60.31
34931;BME280;21134;49.646;8.560;2023-04-25T11:29:43;100167.41;;;13.25;57.92
34931;BME280;21134;49.646;8.560;2023-04-25T11:32:09;100166.28;;;13.39;56.15
34931;BME280;21134;49.646;8.560;2023-04-25T11:34:36;100168.22;;;13.28;55.86
34931;BME280;21134;49.646;8.560;2023-04-25T11:37:03;100169.13;;;13.22;56.57
34931;BME280;21134;49.646;8.560;2023-04-25T11:39:32;100171.44;;;12.85;57.26
34931;BME280;21134;49.646;8.560;2023-04-25T11:41:59;100171.41;;;12.89;57.92
34931;BME280;21134;49.646;8.560;2023-04-25T11:44:26;100178.22;;;12.89;56.95
34931;BME280;21134;49.646;8.560;2023-04-25T11:46:52;100179.25;;;12.78;58.16
34931;BME280;21134;49.646;8.560;2023-04-25T11:49:19;100183.13;;;12.47;57.90
34931;BME280;21134;49.646;8.560;2023-04-25T11:51:47;100188.41;;;12.36;59.09
34931;BME280;21134;49.646;8.560;2023-04-25T11:54:15;100194.13;;;12.55;59.85
34931;BME280;21134;49.646;8.560;2023-04-25T11:56:43;100185.31;;;12.74;57.66
34931;BME280;21134;49.646;8.560;2023-04-25T11:59:11;100196.84;;;13.01;58.40
34931;BME280;21134;49.646;8.560;2023-04-25T12:01:39;100193.34;;;13.09;56.98
34931;BME280;21134;49.646;8.560;2023-04-25T12:04:13;100194.97;;;13.11;56.62
34931;BME280;21134;49.646;8.560;2023-04-25T12:06:41;100193.88;;;13.29;56.70
34931;BME280;21134;49.646;8.560;2023-04-25T12:09:09;100190.53;;;13.22;56.30
34931;BME280;21134;49.646;8.560;2023-04-25T12:11:44;100188.00;;;13.21;56.19
34931;BME280;21134;49.646;8.560;2023-04-25T12:14:12;100191.34;;;13.28;55.28
34931;BME280;21134;49.646;8.560;2023-04-25T12:16:43;100192.72;;;13.45;55.41
34931;BME280;21134;49.646;8.560;2023-04-25T12:19:09;100188.00;;;13.19;56.02
34931;BME280;21134;49.646;8.560;2023-04-25T12:21:36;100196.50;;;13.26;57.62
34931;BME280;21134;49.646;8.560;2023-04-25T12:24:10;100196.16;;;13.46;56.45
34931;BME280;21134;49.646;8.560;2023-04-25T12:26:50;100190.09;;;13.48;55.10
34931;BME280;21134;49.646;8.560;2023-04-25T12:29:18;100196.78;;;13.59;56.05
34931;BME280;21134;49.646;8.560;2023-04-25T12:31:45;100202.13;;;13.48;56.56
34931;BME280;21134;49.646;8.560;2023-04-25T12:34:12;100198.34;;;13.67;56.29
34931;BME280;21134;49.646;8.560;2023-04-25T12:36:38;100197.94;;;13.42;55.44
34931;BME280;21134;49.646;8.560;2023-04-25T12:39:05;100197.75;;;13.53;56.52
34931;BME280;21134;49.646;8.560;2023-04-25T12:41:32;100201.69;;;13.72;56.87
34931;BME280;21134;49.646;8.560;2023-04-25T12:44:00;100200.69;;;13.80;55.49
34931;BME280;21134;49.646;8.560;2023-04-25T12:46:26;100210.53;;;14.03;54.49
34931;BME280;21134;49.646;8.560;2023-04-25T12:48:53;100208.16;;;13.92;54.00
34931;BME280;21134;49.646;8.560;2023-04-25T12:51:20;100207.47;;;13.84;53.09
34931;BME280;21134;49.646;8.560;2023-04-25T12:53:50;100205.78;;;13.81;54.09
34931;BME280;21134;49.646;8.560;2023-04-25T12:56:16;100221.16;;;13.86;53.97
34931;BME280;21134;49.646;8.560;2023-04-25T12:58:43;100216.44;;;13.63;53.29